Flight Track Log - Related Links

Times and Time Zones

All times are in EDT time to prevent confusion due to time zone crossing. See the RPA4880 flight status page for this flight to view local times or setup timezone preferences in your user account.

Time Position Orientation Groundspeed Altitude Reporting Facility
EDT Latitude Longitude Course Direction KTS MPH feet Rate Location/Type
Thu 09:42:52 PM 40.6333 -74.1833 66° East 195 224 2,400  Level New York TRACON
Thu 09:43:52 PM 40.6333 -74.2500 270° West 234 269 4,300 1,789 Climbing New York TRACON
Thu 09:44:46 PM 40.6833 -74.2500 360° North 251 289 5,800 900 Climbing New York TRACON
Thu 09:45:52 PM 40.7667 -74.2333 North 269 310 6,100 290 Climbing New York TRACON
Thu 09:47:52 PM 40.8833 -74.1333 North 277 319 6,700 900 Climbing New York TRACON
Thu 09:48:00 PM 41.2200 -73.8067 66° East  Level FlightAware Approximate
Thu 09:48:52 PM 40.9500 -74.0500 43° Northeast 278 320 8,800  Level New York TRACON
Thu 09:49:52 PM 41.0000 -73.9667 51° Northeast 280 322 10,700 1,385 Climbing New York TRACON
Thu 09:52:20 PM 41.0822 -73.7189 66° East 324 373 13,600 1,263 Climbing Boston Center
Thu 09:53:21 PM 41.0814 -73.6075 91° East 303 349 15,100 1,180 Climbing Boston Center
Thu 09:54:22 PM 41.0956 -73.5003 80° East 307 353 16,000 443 Climbing Boston Center
Thu 09:55:23 PM 41.1422 -73.3822 62° Northeast 336 387 16,000  Level Boston Center
Thu 09:56:24 PM 41.1839 -73.2672 64° Northeast 359 413 16,000  Level Boston Center
Thu 09:57:25 PM 41.2294 -73.1417 64° Northeast 372 428 16,000  Level Boston Center
Thu 09:58:26 PM 41.2781 -73.0039 65° Northeast 375 432 16,000  Level Boston Center
Thu 09:59:26 PM 41.3467 -72.9008 48° Northeast 376 433 16,000 -496 Level Boston Center
Thu 10:00:27 PM 41.3867 -72.7828 66° East 374 430 15,000 -1,268 Descending Boston Center
Thu 10:01:29 PM 41.3758 -72.6433 96° East 357 411 13,400 -1,062 Descending Boston Center
Thu 10:02:20 PM 41.3728 -72.5489 92° East 306 352 13,000 -595 Descending Boston Center
Thu 10:03:30 PM 41.3600 -72.4194 97° East 294 338 12,200 -896 Descending Boston Center
Thu 10:04:34 PM 41.3511 -72.3047 96° East 311 358 11,000 -576 Descending Boston Center
Thu 10:05:35 PM 41.3408 -72.1828 96° East 315 362 11,000  Level Boston Center
Thu 10:06:24 PM 41.3342 -72.0914 96° East 323 372 11,000 -98 Level Boston Center
Thu 10:06:36 PM 41.3397 -72.0664 74° East 323 372 10,900 -1,114 Descending Boston Center
Thu 10:07:34 PM 41.3636 -71.9528 74° East 317 365 9,700 -1,461 Descending Boston Center
Thu 10:08:31 PM 41.4169 -71.8836 44° Northeast 285 328 8,100 -1,774 Descending Boston Center
Thu 10:09:29 PM 41.4808 -71.8267 34° Northeast 278 320 6,300 -1,563 Descending Boston Center
Thu 10:10:30 PM 41.5383 -71.7589 41° Northeast 267 307 5,000 -672 Descending Boston Center
Thu 10:11:25 PM 41.5875 -71.6992 42° Northeast 265 305 5,000  Level Boston Center
Thu 10:11:40 PM 41.5997 -71.6853 40° Northeast 269 310 5,000  Level Boston Center
Thu 10:12:27 PM 41.6417 -71.6356 42° Northeast 258 297 5,000  Level Boston Center
Thu 10:12:43 PM 41.6569 -71.6172 42° Northeast 262 302 5,000  Level Boston Center
Thu 10:13:25 PM 41.6967 -71.5692 42° Northeast 257 296 5,000  Level Boston Center
Thu 10:14:29 PM 41.7511 -71.5142 37° Northeast 251 289 5,000  Level Boston Center
Thu 10:14:44 PM 41.7694 -71.4964 36° Northeast 253 291 5,000 -526 Level Boston Center
Thu 10:15:26 PM 41.8044 -71.4644 34° Northeast 226 260 4,500 -1,000 Descending Boston Center
Thu 10:15:44 PM 41.8208 -71.4475 38° Northeast 233 268 4,000 -1,475 Descending Boston Center
Thu 10:16:27 PM 41.8539 -71.4133 38° Northeast 220 253 3,000 -1,475 Descending Boston Center
Thu 10:16:45 PM 41.8694 -71.4008 31° Northeast 217 250 2,500 -857 Descending Boston Center
Thu 10:17:30 PM 41.8886 -71.3594 58° Northeast 203 234 2,100 -381 Descending Boston Center
Thu 10:17:48 PM 41.8842 -71.3364 105° East 201 231 2,100  Level Boston Center
Thu 10:18:30 PM 41.8489 -71.3217 163° South 181 208 2,100  Level Boston Center
Thu 10:18:49 PM 41.8397 -71.3281 207° Southwest 182 209 2,100 -380 Level Boston Center
Thu 10:19:49 PM 41.8008 -71.3631 214° Southwest 157 181 1,600 -529 Descending Boston Center
Thu 10:20:31 PM 41.7811 -71.3781 210° Southwest 104 120 1,200 -590 Descending Boston Center
Thu 10:20:50 PM 41.7742 -71.3844 214° Southwest 116 133 1,000 -610 Descending Boston Center
Thu 10:21:30 PM 41.7550 -71.4003 212° Southwest 110 127 600 -492 Descending Boston Center
Thu 10:21:51 PM 41.7481 -71.4061 212° Southwest 112 129 500 -286 Descending Boston Center

Login

Don't have an account? Register now (free) for customized features, flight alerts, and more!